createdAt,value
2017-12-02T00:01:01.260Z,101682.62
2017-12-02T00:03:28.892Z,101677.19
2017-12-02T00:05:56.484Z,101681.89
2017-12-02T00:08:24.416Z,101686.75
2017-12-02T00:10:52.029Z,101689.97
2017-12-02T00:13:19.603Z,101699.38
2017-12-02T00:15:47.228Z,101699.27
2017-12-02T00:18:14.869Z,101693.83
2017-12-02T00:20:42.453Z,101693.14
2017-12-02T00:23:10.384Z,101693.56
2017-12-02T00:25:37.988Z,101697.31
2017-12-02T00:28:05.620Z,101699.39
2017-12-02T00:30:33.208Z,101702.88
2017-12-02T00:33:00.797Z,101699.28
2017-12-02T00:35:28.448Z,101703.72
2017-12-02T00:37:56.028Z,101707.26
2017-12-02T00:40:23.620Z,101710.85
2017-12-02T00:42:51.248Z,101716.50
2017-12-02T00:45:18.844Z,101718.88
2017-12-02T00:47:46.424Z,101717.67
2017-12-02T00:50:14.376Z,101725.27
2017-12-02T00:52:41.952Z,101731.72
2017-12-02T00:55:09.539Z,101728.76
2017-12-02T00:57:37.156Z,101728.27
2017-12-02T01:00:04.740Z,101725.37
2017-12-02T01:02:32.685Z,101723.91
2017-12-02T01:05:00.272Z,101725.64
2017-12-02T01:07:28.115Z,101729.19
2017-12-02T01:09:55.745Z,101728.23
2017-12-02T01:12:23.644Z,101729.13
2017-12-02T01:14:51.276Z,101732.93
2017-12-02T01:17:18.864Z,101735.20
2017-12-02T01:19:46.456Z,101742.66
2017-12-02T01:22:14.065Z,101739.91
2017-12-02T01:24:41.972Z,101747.83
2017-12-02T01:27:09.941Z,101753.38
2017-12-02T01:29:37.524Z,101752.00
2017-12-02T01:32:05.120Z,101752.53
2017-12-02T01:34:33.037Z,101757.07
2017-12-02T01:37:00.607Z,101758.39
2017-12-02T01:39:28.247Z,101765.98
2017-12-02T01:41:55.828Z,101764.52
2017-12-02T01:44:23.404Z,101767.11
2017-12-02T01:46:51.036Z,101764.41
2017-12-02T01:49:18.847Z,101768.11
2017-12-02T01:51:46.468Z,101774.45
2017-12-02T01:54:14.044Z,101773.13
2017-12-02T01:56:41.631Z,101772.23
2017-12-02T01:59:09.277Z,101782.42
2017-12-02T02:01:36.904Z,101785.02
2017-12-02T02:04:04.551Z,101780.53
2017-12-02T02:06:32.140Z,101777.04
2017-12-02T02:08:59.732Z,101777.20
2017-12-02T02:11:27.666Z,101783.70
2017-12-02T02:13:55.260Z,101782.37
2017-12-02T02:16:22.875Z,101791.56
2017-12-02T02:18:50.463Z,101794.27
2017-12-02T02:21:18.317Z,101798.59
2017-12-02T02:23:45.935Z,101799.86
2017-12-02T02:26:13.524Z,101808.21
2017-12-02T02:28:41.147Z,101795.00
2017-12-02T02:31:08.797Z,101805.56
2017-12-02T02:33:36.408Z,101804.40
2017-12-02T02:36:04.029Z,101803.98
2017-12-02T02:38:31.630Z,101808.99
2017-12-02T02:40:59.252Z,101809.48
2017-12-02T02:43:26.847Z,101813.64
2017-12-02T02:45:54.425Z,101811.85
2017-12-02T02:48:22.058Z,101822.52
2017-12-02T02:50:49.641Z,101815.17
2017-12-02T02:53:17.278Z,101819.32
2017-12-02T02:55:44.867Z,101817.77
2017-12-02T02:58:12.455Z,101826.63
2017-12-02T03:00:40.165Z,101825.69
2017-12-02T03:03:07.743Z,101820.35
2017-12-02T03:05:35.753Z,101830.55
2017-12-02T03:08:03.352Z,101829.23
2017-12-02T03:10:30.931Z,101837.57
2017-12-02T03:12:58.544Z,101834.88
2017-12-02T03:15:26.131Z,101838.66
2017-12-02T03:17:53.793Z,101841.48
2017-12-02T03:20:21.436Z,101848.98
2017-12-02T03:22:49.381Z,101850.67
2017-12-02T03:25:17.011Z,101853.84
2017-12-02T03:27:44.600Z,101855.01
2017-12-02T03:30:12.248Z,101851.42
2017-12-02T03:32:39.885Z,101852.58
2017-12-02T03:35:07.469Z,101858.87
2017-12-02T03:37:35.088Z,101863.09
2017-12-02T03:40:02.673Z,101862.13
2017-12-02T03:42:30.304Z,101864.83
2017-12-02T03:44:57.894Z,101870.11
2017-12-02T03:47:25.468Z,101878.83
2017-12-02T03:49:53.368Z,101876.94
2017-12-02T03:52:20.966Z,101879.95
2017-12-02T03:54:48.607Z,101879.10
2017-12-02T03:57:16.186Z,101879.05
2017-12-02T03:59:43.773Z,101881.84
2017-12-02T04:02:11.784Z,101879.10
2017-12-02T04:04:39.395Z,101885.41
2017-12-02T04:07:07.326Z,101895.27
2017-12-02T04:09:34.932Z,101887.64
2017-12-02T04:12:02.850Z,101896.83
2017-12-02T04:14:30.478Z,101891.97
2017-12-02T04:16:58.383Z,101889.28
2017-12-02T04:19:26.248Z,101896.30
2017-12-02T04:21:53.832Z,101892.39
2017-12-02T04:24:21.423Z,101898.13
2017-12-02T04:26:49.080Z,101897.47
2017-12-02T04:29:17.006Z,101897.84
2017-12-02T04:31:44.867Z,101894.78
2017-12-02T04:34:12.697Z,101892.91
2017-12-02T04:36:40.292Z,101896.23
2017-12-02T04:39:08.196Z,101899.98
2017-12-02T04:41:35.780Z,101901.80
2017-12-02T04:44:03.391Z,101900.91
2017-12-02T04:46:30.983Z,101901.80
2017-12-02T04:48:58.565Z,101903.12
2017-12-02T04:51:26.172Z,101912.38
2017-12-02T04:53:53.764Z,101910.39
2017-12-02T04:56:21.438Z,101911.19
2017-12-02T04:58:49.048Z,101913.94
2017-12-02T05:01:16.628Z,101917.42
2017-12-02T05:03:44.235Z,101925.77
2017-12-02T05:06:11.828Z,101925.25
2017-12-02T05:08:39.452Z,101930.95
2017-12-02T05:11:07.034Z,101924.08
2017-12-02T05:13:34.616Z,101927.47
2017-12-02T05:16:02.232Z,101927.47
2017-12-02T05:18:30.060Z,101932.17
2017-12-02T05:20:57.685Z,101932.55
2017-12-02T05:23:25.594Z,101935.19
2017-12-02T05:25:53.186Z,101937.88
2017-12-02T05:28:20.804Z,101938.78
2017-12-02T05:30:48.392Z,101941.38
2017-12-02T05:33:16.012Z,101945.02
2017-12-02T05:35:43.610Z,101946.72
2017-12-02T05:38:11.187Z,101948.80
2017-12-02T05:40:38.799Z,101942.38
2017-12-02T05:43:06.376Z,101939.45
2017-12-02T05:45:34.057Z,101943.17
2017-12-02T05:48:01.734Z,101949.41
2017-12-02T05:50:29.379Z,101951.73
2017-12-02T05:52:57.245Z,101950.88
2017-12-02T05:55:24.917Z,101950.13
2017-12-02T05:57:52.885Z,101952.52
2017-12-02T06:00:20.464Z,101947.81
2017-12-02T06:02:48.060Z,101952.25
2017-12-02T06:05:15.670Z,101954.52
2017-12-02T06:07:43.252Z,101960.75
2017-12-02T06:10:10.892Z,101970.89
2017-12-02T06:12:38.475Z,101970.05
2017-12-02T06:15:06.110Z,101961.78
2017-12-02T06:17:33.716Z,101971.45
2017-12-02T06:20:01.303Z,101968.11
2017-12-02T06:22:29.003Z,101971.64
2017-12-02T06:24:56.580Z,101967.53
2017-12-02T06:27:24.192Z,101980.69
2017-12-02T06:29:52.093Z,101975.93
2017-12-02T06:32:19.959Z,101981.69
2017-12-02T06:34:47.606Z,101986.59
2017-12-02T06:37:15.180Z,101984.85
2017-12-02T06:39:42.766Z,101990.66
2017-12-02T06:42:10.408Z,101983.53
2017-12-02T06:44:38.273Z,101990.36
2017-12-02T06:47:05.929Z,101996.03
2017-12-02T06:49:33.523Z,101994.14
2017-12-02T06:52:01.464Z,101994.66
2017-12-02T06:54:29.121Z,102001.64
2017-12-02T06:56:56.723Z,102001.82
2017-12-02T06:59:24.343Z,101999.55
2017-12-02T07:01:52.216Z,101999.42
2017-12-02T07:04:19.860Z,101997.33
2017-12-02T07:06:47.500Z,102004.04
2017-12-02T07:09:15.104Z,102006.20
2017-12-02T07:11:42.724Z,102007.25
2017-12-02T07:14:10.316Z,102015.88
2017-12-02T07:16:37.900Z,102019.52
2017-12-02T07:19:05.509Z,102024.27
2017-12-02T07:21:33.089Z,102018.98
2017-12-02T07:24:00.980Z,102020.97
2017-12-02T07:26:28.853Z,102022.72
2017-12-02T07:28:56.822Z,102022.91
2017-12-02T07:31:24.433Z,102024.52
2017-12-02T07:33:52.024Z,102031.34
2017-12-02T07:36:19.616Z,102032.56
2017-12-02T07:38:47.241Z,102033.18
2017-12-02T07:41:14.840Z,102032.34
2017-12-02T07:43:42.432Z,102030.44
2017-12-02T07:46:10.032Z,102035.48
2017-12-02T07:48:37.605Z,102046.34
2017-12-02T07:51:05.246Z,102049.83
2017-12-02T07:53:32.827Z,102051.00
2017-12-02T07:56:00.460Z,102050.30
2017-12-02T07:58:28.117Z,102054.55
2017-12-02T08:00:56.039Z,102054.87
2017-12-02T08:03:23.661Z,102056.70
2017-12-02T08:05:51.571Z,102055.85
2017-12-02T08:08:19.435Z,102059.67
2017-12-02T08:10:47.043Z,102056.60
2017-12-02T08:13:14.619Z,102052.79
2017-12-02T08:15:42.259Z,102057.03
2017-12-02T08:18:09.833Z,102057.83
2017-12-02T08:20:37.416Z,102062.22
2017-12-02T08:23:05.033Z,102059.52
2017-12-02T08:25:33.460Z,102057.59
2017-12-02T08:28:01.087Z,102067.59
2017-12-02T08:30:28.665Z,102067.69
2017-12-02T08:32:56.269Z,102072.98
2017-12-02T08:35:23.881Z,102087.37
2017-12-02T08:37:51.472Z,102078.59
2017-12-02T08:40:19.105Z,102087.64
2017-12-02T08:42:46.753Z,102094.72
2017-12-02T08:45:14.351Z,102086.03
2017-12-02T08:47:41.974Z,102080.06
2017-12-02T08:50:09.607Z,102086.40
2017-12-02T08:52:37.269Z,102084.75
2017-12-02T08:55:04.852Z,102085.41
2017-12-02T08:57:32.433Z,102078.37
2017-12-02T09:00:00.066Z,102085.29
2017-12-02T09:02:27.931Z,102082.23
2017-12-02T09:04:55.628Z,102084.73
2017-12-02T09:07:23.217Z,102096.16
2017-12-02T09:09:50.817Z,102098.33
2017-12-02T09:12:18.423Z,102093.14
2017-12-02T09:14:46.590Z,102096.87
2017-12-02T09:17:14.643Z,102099.41
2017-12-02T09:19:42.297Z,102107.25
2017-12-02T09:22:09.882Z,102108.94
2017-12-02T09:24:37.948Z,102105.77
2017-12-02T09:27:05.657Z,102108.27
2017-12-02T09:29:33.312Z,102105.98
2017-12-02T09:32:00.899Z,102106.34
2017-12-02T09:34:28.482Z,102107.94
2017-12-02T09:36:56.101Z,102106.27
2017-12-02T09:39:23.695Z,102105.52
2017-12-02T09:41:51.660Z,102104.55
2017-12-02T09:44:19.306Z,102106.77
2017-12-02T09:46:46.888Z,102110.52
2017-12-02T09:49:14.549Z,102115.42
2017-12-02T09:51:42.127Z,102112.86
2017-12-02T09:54:09.772Z,102109.53
2017-12-02T09:56:37.646Z,102109.80
2017-12-02T09:59:05.507Z,102115.80
2017-12-02T10:01:33.124Z,102112.39
2017-12-02T10:04:01.190Z,102114.70
2017-12-02T10:06:28.882Z,102109.48
2017-12-02T10:08:56.472Z,102117.50
2017-12-02T10:11:24.328Z,102110.69
2017-12-02T10:13:51.945Z,102108.58
2017-12-02T10:16:19.535Z,102109.87
2017-12-02T10:18:47.184Z,102105.94
2017-12-02T10:21:14.775Z,102102.50
2017-12-02T10:23:42.360Z,102102.98
2017-12-02T10:26:09.995Z,102097.42
2017-12-02T10:28:37.677Z,102099.77
2017-12-02T10:31:06.964Z,102100.91
2017-12-02T10:33:34.788Z,102099.33
2017-12-02T10:36:02.398Z,102096.78
2017-12-02T10:38:30.046Z,102093.88
2017-12-02T10:40:57.656Z,102092.97
2017-12-02T10:43:25.285Z,102096.04
2017-12-02T10:45:52.886Z,102097.15
2017-12-02T10:48:20.470Z,102103.63
2017-12-02T10:50:48.371Z,102093.45
2017-12-02T10:53:15.952Z,102093.78
2017-12-02T10:55:43.597Z,102096.26
2017-12-02T10:58:11.207Z,102093.44
2017-12-02T11:00:38.829Z,102099.48
2017-12-02T11:03:06.412Z,102094.53
2017-12-02T11:05:33.991Z,102094.67
2017-12-02T11:08:01.620Z,102091.86
2017-12-02T11:10:29.577Z,102096.26
2017-12-02T11:12:57.699Z,102099.23
2017-12-02T11:15:25.284Z,102099.71
2017-12-02T11:17:54.019Z,102102.72
2017-12-02T11:20:22.277Z,102100.33
2017-12-02T11:22:50.142Z,102101.82
2017-12-02T11:25:18.116Z,102098.47
2017-12-02T11:27:45.697Z,102101.55
2017-12-02T11:30:13.337Z,102104.03
2017-12-02T11:32:40.962Z,102098.54
2017-12-02T11:35:08.545Z,102102.67
2017-12-02T11:37:36.429Z,102102.09
2017-12-02T11:40:04.318Z,102100.50
2017-12-02T11:42:32.164Z,102097.86
2017-12-02T11:44:59.790Z,102097.53
2017-12-02T11:47:27.397Z,102098.08
2017-12-02T11:49:55.012Z,102100.56
2017-12-02T11:52:22.604Z,102093.66
2017-12-02T11:54:50.197Z,102095.89
2017-12-02T11:57:17.807Z,102096.75
2017-12-02T11:59:45.400Z,102099.03
2017-12-02T12:02:13.028Z,102102.78
2017-12-02T12:04:40.934Z,102103.67
2017-12-02T12:07:08.540Z,102096.93
2017-12-02T12:09:36.153Z,102102.28
2017-12-02T12:12:03.749Z,102096.88
2017-12-02T12:14:31.365Z,102094.52
2017-12-02T12:16:58.956Z,102097.22
2017-12-02T12:19:26.573Z,102093.55
2017-12-02T12:21:54.219Z,102093.66
2017-12-02T12:24:21.808Z,102088.78
2017-12-02T12:26:49.438Z,102086.12
2017-12-02T12:29:17.022Z,102083.30
2017-12-02T12:31:44.656Z,102085.00
2017-12-02T12:34:12.275Z,102091.62
2017-12-02T12:36:40.397Z,102091.78
2017-12-02T12:39:08.315Z,102087.73
2017-12-02T12:41:35.976Z,102090.87
2017-12-02T12:44:03.579Z,102090.02
2017-12-02T12:46:31.208Z,102095.95
2017-12-02T12:48:59.067Z,102094.84
2017-12-02T12:51:26.735Z,102091.80
2017-12-02T12:53:54.335Z,102101.22
2017-12-02T12:56:21.928Z,102100.31
2017-12-02T12:58:49.563Z,102091.20
2017-12-02T13:01:17.147Z,102103.02
2017-12-02T13:03:44.780Z,102098.47
2017-12-02T13:06:12.391Z,102096.30
2017-12-02T13:08:39.996Z,102084.41
2017-12-02T13:11:07.627Z,102088.70
2017-12-02T13:13:35.219Z,102093.73
2017-12-02T13:16:02.866Z,102090.82
2017-12-02T13:18:30.818Z,102094.47
2017-12-02T13:20:58.791Z,102097.22
2017-12-02T13:23:26.659Z,102098.51
2017-12-02T13:25:54.242Z,102097.39
2017-12-02T13:28:21.871Z,102089.45
2017-12-02T13:30:49.752Z,102098.51
2017-12-02T13:33:17.342Z,102092.38
2017-12-02T13:35:45.000Z,102090.36
2017-12-02T13:38:12.676Z,102093.32
2017-12-02T13:40:40.322Z,102087.77
2017-12-02T13:43:07.984Z,102077.16
2017-12-02T13:45:35.680Z,102082.66
2017-12-02T13:48:03.698Z,102082.48
2017-12-02T13:50:31.327Z,102078.17
2017-12-02T13:52:59.430Z,102077.06
2017-12-02T13:55:27.028Z,102076.02
2017-12-02T13:57:54.630Z,102078.01
2017-12-02T14:00:22.252Z,102074.28
2017-12-02T14:02:50.196Z,102074.95
2017-12-02T14:05:17.882Z,102079.45
2017-12-02T14:07:45.749Z,102078.52
2017-12-02T14:10:13.658Z,102084.25
2017-12-02T14:12:41.360Z,102090.94
2017-12-02T14:15:09.258Z,102087.13
2017-12-02T14:17:37.089Z,102088.02
2017-12-02T14:20:04.712Z,102098.88
2017-12-02T14:22:32.372Z,102100.25
2017-12-02T14:25:00.000Z,102103.05
2017-12-02T14:27:27.652Z,102104.95
2017-12-02T14:29:55.514Z,102099.71
2017-12-02T14:32:23.157Z,102099.66
2017-12-02T14:34:51.043Z,102102.53
2017-12-02T14:37:19.017Z,102101.32
2017-12-02T14:39:47.000Z,102101.23
2017-12-02T14:42:14.624Z,102108.19
2017-12-02T14:44:42.244Z,102101.71
2017-12-02T14:47:10.073Z,102101.63
2017-12-02T14:49:37.681Z,102104.03
2017-12-02T14:52:05.335Z,102108.14
2017-12-02T14:54:32.989Z,102108.25
2017-12-02T14:57:00.925Z,102114.38
2017-12-02T14:59:28.534Z,102120.04
2017-12-02T15:01:56.146Z,102124.76
2017-12-02T15:04:24.116Z,102117.07
2017-12-02T15:06:52.103Z,102123.48
2017-12-02T15:09:19.780Z,102123.59
2017-12-02T15:11:47.746Z,102131.56
2017-12-02T15:14:15.652Z,102132.73
2017-12-02T15:16:44.096Z,102143.50
2017-12-02T15:19:12.633Z,102144.78
2017-12-02T15:21:40.410Z,102141.28
2017-12-02T15:24:08.653Z,102146.33
2017-12-02T15:26:36.265Z,102139.25
2017-12-02T15:29:04.331Z,102146.47
2017-12-02T15:31:32.009Z,102151.91
2017-12-02T15:33:59.957Z,102148.92
2017-12-02T15:36:27.548Z,102153.23
2017-12-02T15:38:55.217Z,102155.02
2017-12-02T15:41:22.831Z,102157.57
2017-12-02T15:43:50.430Z,102153.13
2017-12-02T15:46:18.096Z,102157.25
2017-12-02T15:48:45.680Z,102157.67
2017-12-02T15:51:13.312Z,102162.61
2017-12-02T15:53:40.957Z,102167.25
2017-12-02T15:56:08.600Z,102156.77
2017-12-02T15:58:36.212Z,102160.73
2017-12-02T16:01:03.802Z,102162.23
2017-12-02T16:03:31.640Z,102154.98
2017-12-02T16:05:59.268Z,102159.08
2017-12-02T16:08:26.859Z,102159.08
2017-12-02T16:10:54.755Z,102158.65
2017-12-02T16:13:22.338Z,102164.13
2017-12-02T16:15:49.942Z,102168.94
2017-12-02T16:18:17.558Z,102168.47
2017-12-02T16:20:45.467Z,102168.99
2017-12-02T16:23:13.110Z,102163.33
2017-12-02T16:25:40.693Z,102170.27
2017-12-02T16:28:08.283Z,102169.42
2017-12-02T16:30:36.229Z,102174.28
2017-12-02T16:33:03.864Z,102170.59
2017-12-02T16:35:31.484Z,102175.92
2017-12-02T16:37:59.212Z,102175.60
2017-12-02T16:40:26.801Z,102170.64
2017-12-02T16:42:54.436Z,102172.20
2017-12-02T16:45:22.277Z,102175.16
2017-12-02T16:47:49.925Z,102172.86
2017-12-02T16:50:17.520Z,102175.73
2017-12-02T16:52:45.364Z,102176.30
2017-12-02T16:55:13.365Z,102173.00
2017-12-02T16:57:40.993Z,102174.42
2017-12-02T17:00:08.741Z,102172.72
2017-12-02T17:02:36.431Z,102176.20
2017-12-02T17:05:04.424Z,102180.06
2017-12-02T17:07:32.054Z,102177.52
2017-12-02T17:09:59.709Z,102172.70
2017-12-02T17:12:28.713Z,102169.55
2017-12-02T17:14:56.352Z,102177.19
2017-12-02T17:17:24.044Z,102177.52
2017-12-02T17:19:51.704Z,102182.38
2017-12-02T17:22:19.619Z,102175.77
2017-12-02T17:24:47.672Z,102184.97
2017-12-02T17:27:15.275Z,102174.13
2017-12-02T17:29:42.856Z,102178.27
2017-12-02T17:32:10.499Z,102175.92
2017-12-02T17:34:38.429Z,102174.31
2017-12-02T17:37:06.067Z,102176.77
2017-12-02T17:39:33.695Z,102171.34
2017-12-02T17:42:01.289Z,102169.27
2017-12-02T17:44:29.481Z,102168.74
2017-12-02T17:46:57.095Z,102163.79
2017-12-02T17:49:24.779Z,102159.35
2017-12-02T17:51:52.547Z,102164.84
2017-12-02T17:54:20.172Z,102160.77
2017-12-02T17:56:48.158Z,102162.89
2017-12-02T17:59:15.743Z,102164.69
2017-12-02T18:01:43.372Z,102166.01
2017-12-02T18:04:11.053Z,102164.08
2017-12-02T18:06:38.669Z,102163.03
2017-12-02T18:09:06.376Z,102161.42
2017-12-02T18:11:33.973Z,102161.31
2017-12-02T18:14:01.596Z,102160.00
2017-12-02T18:16:29.300Z,102163.58
2017-12-02T18:18:56.996Z,102160.09
2017-12-02T18:21:25.696Z,102159.20
2017-12-02T18:23:53.668Z,102159.00
2017-12-02T18:26:21.412Z,102157.81
2017-12-02T18:28:48.998Z,102163.91
2017-12-02T18:31:16.592Z,102169.66
2017-12-02T18:33:44.205Z,102165.59
2017-12-02T18:36:11.788Z,102176.98
2017-12-02T18:38:39.431Z,102176.31
2017-12-02T18:41:07.294Z,102166.80
2017-12-02T18:43:35.804Z,102170.50
2017-12-02T18:46:03.437Z,102169.39
2017-12-02T18:48:31.024Z,102171.23
2017-12-02T18:50:58.658Z,102170.93
2017-12-02T18:53:26.526Z,102173.85
2017-12-02T18:55:54.129Z,102177.58
2017-12-02T18:58:21.746Z,102177.95
2017-12-02T19:00:49.327Z,102177.41
2017-12-02T19:03:16.973Z,102165.59
2017-12-02T19:05:44.630Z,102167.44
2017-12-02T19:08:12.246Z,102163.73
2017-12-02T19:10:39.851Z,102171.88
2017-12-02T19:13:07.486Z,102172.48
2017-12-02T19:15:35.090Z,102177.98
2017-12-02T19:18:02.715Z,102169.50
2017-12-02T19:20:30.808Z,102172.03
2017-12-02T19:22:58.382Z,102174.67
2017-12-02T19:25:26.341Z,102172.69
2017-12-02T19:27:53.961Z,102176.30
2017-12-02T19:30:21.555Z,102178.23
2017-12-02T19:32:49.180Z,102181.72
2017-12-02T19:35:16.774Z,102182.33
2017-12-02T19:37:44.403Z,102184.34
2017-12-02T19:40:12.009Z,102182.08
2017-12-02T19:42:39.593Z,102181.08
2017-12-02T19:45:07.229Z,102185.86
2017-12-02T19:47:34.825Z,102187.28
2017-12-02T19:50:02.768Z,102187.62
2017-12-02T19:52:30.369Z,102185.75
2017-12-02T19:54:57.993Z,102185.46
2017-12-02T19:57:25.612Z,102182.53
2017-12-02T19:59:53.217Z,102178.79
2017-12-02T20:02:20.837Z,102178.03
2017-12-02T20:04:48.470Z,102175.06
2017-12-02T20:07:16.060Z,102165.95
2017-12-02T20:09:43.671Z,102169.33
2017-12-02T20:12:11.276Z,102162.69
2017-12-02T20:14:38.923Z,102160.61
2017-12-02T20:17:06.521Z,102154.27
2017-12-02T20:19:34.365Z,102158.70
2017-12-02T20:22:02.025Z,102161.29
2017-12-02T20:24:29.611Z,102164.40
2017-12-02T20:26:57.274Z,102167.55
2017-12-02T20:29:24.867Z,102164.75
2017-12-02T20:31:52.496Z,102163.94
2017-12-02T20:34:20.173Z,102158.58
2017-12-02T20:36:47.814Z,102160.79
2017-12-02T20:39:15.478Z,102168.58
2017-12-02T20:41:43.086Z,102164.95
2017-12-02T20:44:11.566Z,102160.59
2017-12-02T20:46:39.201Z,102153.81
2017-12-02T20:49:06.821Z,102153.72
2017-12-02T20:51:34.457Z,102157.69
2017-12-02T20:54:02.064Z,102156.54
2017-12-02T20:56:29.649Z,102152.75
2017-12-02T20:58:57.282Z,102158.58
2017-12-02T21:01:24.875Z,102153.86
2017-12-02T21:03:52.822Z,102160.33
2017-12-02T21:06:20.418Z,102166.68
2017-12-02T21:08:48.023Z,102171.79
2017-12-02T21:11:15.953Z,102164.99
2017-12-02T21:13:43.550Z,102172.52
2017-12-02T21:16:11.126Z,102169.80
2017-12-02T21:18:38.771Z,102159.41
2017-12-02T21:21:06.965Z,102162.02
2017-12-02T21:23:34.888Z,102149.72
2017-12-02T21:26:02.523Z,102147.20
2017-12-02T21:28:30.418Z,102153.33
2017-12-02T21:30:58.227Z,102142.34
2017-12-02T21:33:25.876Z,102147.97
2017-12-02T21:35:53.499Z,102154.86
2017-12-02T21:38:21.481Z,102147.08
2017-12-02T21:40:49.065Z,102153.51
2017-12-02T21:43:16.946Z,102153.63
2017-12-02T21:45:45.435Z,102153.72
2017-12-02T21:48:13.067Z,102154.83
2017-12-02T21:50:40.732Z,102152.88
2017-12-02T21:53:08.316Z,102156.31
2017-12-02T21:55:35.899Z,102156.52
2017-12-02T21:58:03.543Z,102159.55
2017-12-02T22:00:31.131Z,102160.02
2017-12-02T22:02:59.410Z,102161.97
2017-12-02T22:05:27.012Z,102154.27
2017-12-02T22:07:54.620Z,102157.50
2017-12-02T22:10:22.254Z,102152.94
2017-12-02T22:12:50.102Z,102163.25
2017-12-02T22:15:18.171Z,102149.89
2017-12-02T22:17:45.756Z,102145.89
2017-12-02T22:20:13.345Z,102143.38
2017-12-02T22:22:41.073Z,102144.08
2017-12-02T22:25:08.905Z,102138.94
2017-12-02T22:27:36.773Z,102134.39
2017-12-02T22:30:04.594Z,102141.97
2017-12-02T22:32:32.532Z,102140.98
2017-12-02T22:35:00.140Z,102144.30
2017-12-02T22:37:27.886Z,102143.06
2017-12-02T22:39:56.105Z,102136.98
2017-12-02T22:42:24.551Z,102135.29
2017-12-02T22:44:52.489Z,102133.12
2017-12-02T22:47:20.101Z,102137.97
2017-12-02T22:49:48.121Z,102140.52
2017-12-02T22:52:15.791Z,102130.56
2017-12-02T22:54:43.453Z,102130.30
2017-12-02T22:57:11.730Z,102132.98
2017-12-02T22:59:39.372Z,102128.98
2017-12-02T23:02:07.565Z,102128.14
2017-12-02T23:04:36.048Z,102126.86
2017-12-02T23:07:04.027Z,102122.87
2017-12-02T23:09:31.881Z,102121.72
2017-12-02T23:11:59.546Z,102119.59
2017-12-02T23:14:27.498Z,102114.95
2017-12-02T23:16:55.119Z,102111.84
2017-12-02T23:19:22.727Z,102108.66
2017-12-02T23:21:50.312Z,102104.39
2017-12-02T23:24:17.964Z,102108.86
2017-12-02T23:26:45.555Z,102103.97
2017-12-02T23:29:13.195Z,102103.08
2017-12-02T23:31:40.853Z,102104.06
2017-12-02T23:34:08.450Z,102100.40
2017-12-02T23:36:36.076Z,102097.05
2017-12-02T23:39:03.667Z,102097.09
2017-12-02T23:41:31.289Z,102093.52
2017-12-02T23:43:58.891Z,102089.55
2017-12-02T23:46:26.502Z,102083.28
2017-12-02T23:48:54.136Z,102087.36
2017-12-02T23:51:21.727Z,102089.59
2017-12-02T23:53:49.431Z,102086.54
2017-12-02T23:56:17.015Z,102083.56
2017-12-02T23:58:44.609Z,102084.13
